createdAt,value
2019-01-16T00:01:00.299Z,9.30
2019-01-16T00:03:47.599Z,7.53
2019-01-16T00:06:42.000Z,8.73
2019-01-16T00:09:30.519Z,10.30
2019-01-16T00:12:31.390Z,8.77
2019-01-16T00:15:18.339Z,7.30
2019-01-16T00:21:08.198Z,8.13
2019-01-16T00:23:55.540Z,8.40
2019-01-16T00:26:46.610Z,10.53
2019-01-16T00:29:49.975Z,9.57
2019-01-16T00:32:46.822Z,9.07
2019-01-16T00:35:35.303Z,9.33
2019-01-16T00:38:23.503Z,13.23
2019-01-16T00:41:11.749Z,10.37
2019-01-16T00:44:12.371Z,12.93
2019-01-16T00:46:55.595Z,10.40
2019-01-16T00:49:59.247Z,9.47
2019-01-16T00:52:47.836Z,12.93
2019-01-16T00:55:28.394Z,10.93
2019-01-16T00:58:09.048Z,8.67
2019-01-16T01:00:48.585Z,14.33
2019-01-16T01:03:38.686Z,15.80
2019-01-16T01:06:25.925Z,12.87
2019-01-16T01:09:20.487Z,10.43
2019-01-16T01:12:12.031Z,8.47
2019-01-16T01:15:03.385Z,9.43
2019-01-16T01:18:01.128Z,7.80
2019-01-16T01:20:47.935Z,9.23
2019-01-16T01:23:33.225Z,7.20
2019-01-16T01:26:27.587Z,9.23
2019-01-16T01:29:10.212Z,7.63
2019-01-16T01:31:57.059Z,5.93
2019-01-16T01:34:38.298Z,11.10
2019-01-16T01:37:19.292Z,7.13
2019-01-16T01:40:16.851Z,10.20
2019-01-16T01:43:04.002Z,9.27
2019-01-16T01:45:50.958Z,10.73
2019-01-16T01:48:40.082Z,12.17
2019-01-16T01:51:37.591Z,11.93
2019-01-16T01:54:20.908Z,11.07
2019-01-16T01:57:09.442Z,13.50
2019-01-16T02:00:16.133Z,6.23
2019-01-16T02:03:03.099Z,10.03
2019-01-16T02:05:54.351Z,6.57
2019-01-16T02:08:45.595Z,10.10
2019-01-16T02:11:24.891Z,9.00
2019-01-16T02:14:22.071Z,8.27
2019-01-16T02:17:19.675Z,7.40
2019-01-16T02:20:06.740Z,6.47
2019-01-16T02:22:52.643Z,7.30
2019-01-16T02:25:39.845Z,5.97
2019-01-16T02:28:34.855Z,7.80
2019-01-16T02:31:22.464Z,8.20
2019-01-16T02:34:10.978Z,7.93
2019-01-16T02:37:08.216Z,8.33
2019-01-16T02:40:03.983Z,7.03
2019-01-16T02:42:51.439Z,7.37
2019-01-16T02:45:39.674Z,8.73
2019-01-16T02:48:30.872Z,9.57
2019-01-16T02:51:08.818Z,8.30
2019-01-16T02:53:56.315Z,6.97
2019-01-16T02:56:43.686Z,5.90
2019-01-16T02:59:41.095Z,8.80
2019-01-16T03:02:29.752Z,6.80
2019-01-16T03:05:21.050Z,6.63
2019-01-16T03:08:12.306Z,5.40
2019-01-16T03:11:00.519Z,7.00
2019-01-16T03:13:48.754Z,6.60
2019-01-16T03:16:36.213Z,5.67
2019-01-16T03:19:33.739Z,6.80
2019-01-16T03:22:20.648Z,7.17
2019-01-16T03:25:11.972Z,9.23
2019-01-16T03:27:59.109Z,10.57
2019-01-16T03:30:45.533Z,11.60
2019-01-16T03:33:32.419Z,12.27
2019-01-16T03:36:20.653Z,7.30
2019-01-16T03:39:00.640Z,12.43
2019-01-16T03:41:47.524Z,7.47
2019-01-16T03:44:38.784Z,8.80
2019-01-16T03:47:33.034Z,3.13
2019-01-16T03:50:20.231Z,3.33
2019-01-16T03:53:08.460Z,8.50
2019-01-16T03:55:53.067Z,4.40
2019-01-16T03:58:48.895Z,3.70
2019-01-16T04:01:40.316Z,3.80
2019-01-16T04:04:27.176Z,7.03
2019-01-16T04:07:14.033Z,4.57
2019-01-16T04:10:16.205Z,3.83
2019-01-16T04:13:15.597Z,6.03
2019-01-16T04:16:02.631Z,6.13
2019-01-16T04:18:50.842Z,3.80
2019-01-16T04:21:45.151Z,4.17
2019-01-16T04:24:45.810Z,10.93
2019-01-16T04:27:37.146Z,6.30
2019-01-16T04:30:29.257Z,4.73
2019-01-16T04:33:20.517Z,4.63
2019-01-16T04:36:14.219Z,4.17
2019-01-16T04:39:01.115Z,4.90
2019-01-16T04:41:37.102Z,5.83
2019-01-16T04:44:25.327Z,4.47
2019-01-16T04:47:19.811Z,2.30
2019-01-16T04:49:58.830Z,2.67
2019-01-16T04:52:44.444Z,2.97
2019-01-16T04:55:35.599Z,3.30
2019-01-16T04:58:36.559Z,5.30
2019-01-16T05:01:23.476Z,2.93
2019-01-16T05:04:20.534Z,3.97
2019-01-16T05:07:09.113Z,4.93
2019-01-16T05:10:00.379Z,3.30
2019-01-16T05:12:49.051Z,2.93
2019-01-16T05:15:54.308Z,2.77
2019-01-16T05:18:41.620Z,4.20
2019-01-16T05:21:30.222Z,3.23
2019-01-16T05:24:24.509Z,3.40
2019-01-16T05:27:12.303Z,4.00
2019-01-16T05:29:59.172Z,5.40
2019-01-16T05:32:56.560Z,4.30
2019-01-16T05:35:43.407Z,4.70
2019-01-16T05:38:29.172Z,3.80
2019-01-16T05:41:25.765Z,4.13
2019-01-16T05:44:20.051Z,5.50
2019-01-16T05:47:06.928Z,7.10
2019-01-16T05:49:55.455Z,4.70
2019-01-16T05:52:46.679Z,6.77
2019-01-16T05:55:43.940Z,5.13
2019-01-16T05:58:35.423Z,5.93
2019-01-16T06:01:26.692Z,7.33
2019-01-16T06:04:08.698Z,6.40
2019-01-16T06:06:56.915Z,5.23
2019-01-16T06:09:36.476Z,8.97
2019-01-16T06:12:33.546Z,6.97
2019-01-16T06:15:16.415Z,13.63
2019-01-16T06:18:10.698Z,8.73
2019-01-16T06:20:52.203Z,7.03
2019-01-16T06:23:40.435Z,7.50
2019-01-16T06:26:27.522Z,6.03
2019-01-16T06:29:18.698Z,8.87
2019-01-16T06:32:16.228Z,7.47
2019-01-16T06:34:56.499Z,6.83
2019-01-16T06:37:38.463Z,6.37
2019-01-16T06:40:20.994Z,4.60
2019-01-16T06:43:13.608Z,5.33
2019-01-16T06:46:20.176Z,8.27
2019-01-16T06:49:08.643Z,9.17
2019-01-16T06:51:46.166Z,9.50
2019-01-16T06:54:26.041Z,11.47
2019-01-16T06:57:15.738Z,11.63
2019-01-16T07:00:16.499Z,9.03
2019-01-16T07:03:17.178Z,10.57
2019-01-16T07:06:05.451Z,9.27
2019-01-16T07:08:55.758Z,6.57
2019-01-16T07:11:38.095Z,9.27
2019-01-16T07:14:24.908Z,5.97
2019-01-16T07:17:11.790Z,12.53
2019-01-16T07:19:59.985Z,3.90
2019-01-16T07:22:48.224Z,10.30
2019-01-16T07:25:36.499Z,7.77
2019-01-16T07:28:20.695Z,7.57
2019-01-16T07:31:07.638Z,7.50
2019-01-16T07:33:49.682Z,10.03
2019-01-16T07:36:59.952Z,10.17
2019-01-16T07:39:42.664Z,5.97
2019-01-16T07:42:31.263Z,7.57
2019-01-16T07:45:18.494Z,11.77
2019-01-16T07:48:19.284Z,8.70
2019-01-16T07:50:58.808Z,11.07
2019-01-16T07:54:05.104Z,8.07
2019-01-16T07:56:49.994Z,8.50
2019-01-16T07:59:37.141Z,10.57
2019-01-16T08:02:24.161Z,8.13
2019-01-16T08:05:24.647Z,11.90
2019-01-16T08:08:18.944Z,8.80
2019-01-16T08:11:16.290Z,10.90
2019-01-16T08:14:04.605Z,13.83
2019-01-16T08:16:51.490Z,13.53
2019-01-16T08:19:55.409Z,12.77
2019-01-16T08:22:42.295Z,12.77
2019-01-16T08:25:26.405Z,17.60
2019-01-16T08:28:13.411Z,13.67
2019-01-16T08:31:01.627Z,12.40
2019-01-16T08:33:56.211Z,7.83
2019-01-16T08:36:43.670Z,14.30
2019-01-16T08:39:46.918Z,15.93
2019-01-16T08:42:50.122Z,16.20
2019-01-16T08:45:50.404Z,14.27
2019-01-16T08:48:50.634Z,16.50
2019-01-16T08:51:45.010Z,16.57
2019-01-16T08:54:39.554Z,16.30
2019-01-16T08:57:20.159Z,15.60
2019-01-16T09:00:07.074Z,14.27
2019-01-16T09:02:55.603Z,19.30
2019-01-16T09:05:46.647Z,16.17
2019-01-16T09:08:33.671Z,17.27
2019-01-16T09:11:20.847Z,18.13
2019-01-16T09:14:12.283Z,19.43
2019-01-16T09:17:00.826Z,15.27
2019-01-16T09:20:01.071Z,16.70
2019-01-16T09:22:52.357Z,13.40
2019-01-16T09:25:39.234Z,21.73
2019-01-16T09:28:22.324Z,14.67
2019-01-16T09:31:19.652Z,19.80
2019-01-16T09:34:06.845Z,16.27
2019-01-16T09:37:04.035Z,18.90
2019-01-16T09:39:44.833Z,16.73
2019-01-16T09:42:36.465Z,14.70
2019-01-16T09:45:24.243Z,16.63
2019-01-16T09:48:12.522Z,14.73
2019-01-16T09:51:03.789Z,15.27
2019-01-16T09:53:51.073Z,21.10
2019-01-16T09:56:54.711Z,15.63
2019-01-16T09:59:46.150Z,12.87
2019-01-16T10:02:29.407Z,15.87
2019-01-16T10:05:26.890Z,14.03
2019-01-16T10:08:21.119Z,18.77
2019-01-16T10:11:12.277Z,20.57
2019-01-16T10:13:49.776Z,15.17
2019-01-16T10:16:37.043Z,15.03
2019-01-16T10:19:25.560Z,20.17
2019-01-16T10:22:07.870Z,17.10
2019-01-16T10:24:55.633Z,19.33
2019-01-16T10:27:46.674Z,19.03
2019-01-16T10:30:43.728Z,16.30
2019-01-16T10:33:31.068Z,13.23
2019-01-16T10:36:18.566Z,14.07
2019-01-16T10:39:00.783Z,14.87
2019-01-16T10:41:54.381Z,19.93
2019-01-16T10:44:48.939Z,14.17
2019-01-16T10:47:35.137Z,17.63
2019-01-16T10:50:34.603Z,18.23
2019-01-16T10:53:30.888Z,15.00
2019-01-16T10:56:16.234Z,18.13
2019-01-16T10:59:10.747Z,12.30
2019-01-16T11:01:56.041Z,11.03
2019-01-16T11:04:43.591Z,20.07
2019-01-16T11:07:24.236Z,13.00
2019-01-16T11:10:18.431Z,16.97
2019-01-16T11:13:16.546Z,12.50
2019-01-16T11:16:04.789Z,13.03
2019-01-16T11:19:01.939Z,16.17
2019-01-16T11:22:05.433Z,10.93
2019-01-16T11:24:50.433Z,14.43
2019-01-16T11:27:37.255Z,15.50
2019-01-16T11:30:24.376Z,14.73
2019-01-16T11:33:18.726Z,11.83
2019-01-16T11:36:05.744Z,14.63
2019-01-16T11:39:12.336Z,15.17
2019-01-16T11:42:03.175Z,13.10
2019-01-16T11:44:54.065Z,13.90
2019-01-16T11:47:45.424Z,17.60
2019-01-16T11:50:32.586Z,12.90
2019-01-16T11:53:20.912Z,20.57
2019-01-16T11:56:09.361Z,14.73
2019-01-16T11:58:57.664Z,13.53
2019-01-16T12:02:04.498Z,12.53
2019-01-16T12:04:55.328Z,18.47
2019-01-16T12:07:55.968Z,18.63
2019-01-16T12:10:47.268Z,17.23
2019-01-16T12:13:35.512Z,17.03
2019-01-16T12:16:32.062Z,13.93
2019-01-16T12:19:18.934Z,16.67
2019-01-16T12:22:00.120Z,26.07
2019-01-16T12:24:54.291Z,16.23
2019-01-16T12:27:43.255Z,17.73
2019-01-16T12:30:35.738Z,13.63
2019-01-16T12:33:22.875Z,14.00
2019-01-16T12:36:14.398Z,17.10
2019-01-16T12:39:02.717Z,14.63
2019-01-16T12:41:50.942Z,12.90
2019-01-16T12:44:44.426Z,12.53
2019-01-16T12:47:26.915Z,15.80
2019-01-16T12:50:15.562Z,19.73
2019-01-16T12:53:06.987Z,17.60
2019-01-16T12:55:49.831Z,16.50
2019-01-16T12:58:50.487Z,20.10
2019-01-16T13:01:47.725Z,19.97
2019-01-16T13:04:45.254Z,18.40
2019-01-16T13:07:51.556Z,15.97
2019-01-16T13:10:38.563Z,19.50
2019-01-16T13:13:39.124Z,15.13
2019-01-16T13:16:36.447Z,12.60
2019-01-16T13:19:30.942Z,16.33
2019-01-16T13:22:09.746Z,16.27
2019-01-16T13:24:57.816Z,12.50
2019-01-16T13:27:58.519Z,12.57
2019-01-16T13:30:45.803Z,17.17
2019-01-16T13:33:32.630Z,15.73
2019-01-16T13:36:19.794Z,17.13
2019-01-16T13:39:08.039Z,16.00
2019-01-16T13:42:03.492Z,12.87
2019-01-16T13:44:49.446Z,11.90
2019-01-16T13:47:44.315Z,13.73
2019-01-16T13:50:30.704Z,14.73
2019-01-16T13:53:37.268Z,12.40
2019-01-16T13:56:24.769Z,13.07
2019-01-16T13:59:19.260Z,22.80
2019-01-16T14:02:19.854Z,18.03
2019-01-16T14:04:56.630Z,12.10
2019-01-16T14:07:43.715Z,10.00
2019-01-16T14:10:24.428Z,17.47
2019-01-16T14:13:16.454Z,12.80
2019-01-16T14:16:23.005Z,8.03
2019-01-16T14:19:11.272Z,11.37
2019-01-16T14:21:59.355Z,12.50
2019-01-16T14:24:46.780Z,17.20
2019-01-16T14:27:41.419Z,13.60
2019-01-16T14:30:24.483Z,10.97
2019-01-16T14:33:22.186Z,8.03
2019-01-16T14:36:07.479Z,10.43
2019-01-16T14:38:46.312Z,12.07
2019-01-16T14:41:33.539Z,12.07
2019-01-16T14:44:17.285Z,16.00
2019-01-16T14:47:04.426Z,15.00
2019-01-16T14:49:51.771Z,14.57
2019-01-16T14:52:37.643Z,12.27
2019-01-16T14:55:46.572Z,8.67
2019-01-16T14:58:38.140Z,13.27
2019-01-16T15:01:21.048Z,9.80
2019-01-16T15:04:24.610Z,13.43
2019-01-16T15:07:11.856Z,12.60
2019-01-16T15:10:05.930Z,21.70
2019-01-16T15:13:07.315Z,11.43
2019-01-16T15:16:01.362Z,18.03
2019-01-16T15:18:48.486Z,11.93
2019-01-16T15:21:31.291Z,18.93
2019-01-16T15:24:22.419Z,9.23
2019-01-16T15:27:11.759Z,10.87
2019-01-16T15:30:03.141Z,12.83
2019-01-16T15:32:52.221Z,11.13
2019-01-16T15:35:40.526Z,14.93
2019-01-16T15:38:37.063Z,8.93
2019-01-16T15:41:19.511Z,9.50
2019-01-16T15:44:03.458Z,9.00
2019-01-16T15:46:48.507Z,9.50
2019-01-16T15:49:41.655Z,9.67
2019-01-16T15:52:43.011Z,17.00
2019-01-16T15:55:46.355Z,13.73
2019-01-16T15:58:37.667Z,27.93
2019-01-16T16:01:24.908Z,13.93
2019-01-16T16:04:11.851Z,14.70
2019-01-16T16:06:54.215Z,11.03
2019-01-16T16:09:33.557Z,12.53
2019-01-16T16:12:15.987Z,13.77
2019-01-16T16:15:04.209Z,13.30
2019-01-16T16:17:52.817Z,11.53
2019-01-16T16:20:39.636Z,14.45
2019-01-16T16:23:33.610Z,17.50
2019-01-16T16:26:20.891Z,13.00
2019-01-16T16:29:07.084Z,14.07
2019-01-16T16:31:51.321Z,15.63
2019-01-16T16:34:54.641Z,12.80
2019-01-16T16:37:41.794Z,10.10
2019-01-16T16:40:33.500Z,14.60
2019-01-16T16:43:15.823Z,14.33
2019-01-16T16:46:02.651Z,15.27
2019-01-16T16:48:45.762Z,15.17
2019-01-16T16:51:33.416Z,18.07
2019-01-16T16:54:24.440Z,12.03
2019-01-16T16:57:15.815Z,13.53
2019-01-16T17:00:01.829Z,19.87
2019-01-16T17:02:53.438Z,19.57
2019-01-16T17:05:37.156Z,17.53
2019-01-16T17:08:37.715Z,21.00
2019-01-16T17:11:26.230Z,13.53
2019-01-16T17:14:18.273Z,13.73
2019-01-16T17:17:12.771Z,14.03
2019-01-16T17:20:00.209Z,14.67
2019-01-16T17:22:48.118Z,11.57
2019-01-16T17:25:48.710Z,14.63
2019-01-16T17:28:45.719Z,16.47
2019-01-16T17:31:32.619Z,18.47
2019-01-16T17:34:19.590Z,14.17
2019-01-16T17:37:08.119Z,17.00
2019-01-16T17:39:52.339Z,17.30
2019-01-16T17:42:49.555Z,13.40
2019-01-16T17:45:53.141Z,13.73
2019-01-16T17:48:42.835Z,15.77
2019-01-16T17:51:32.342Z,14.13
2019-01-16T17:54:19.541Z,11.30
2019-01-16T17:57:10.863Z,13.37
2019-01-16T17:59:55.843Z,13.23
2019-01-16T18:02:43.523Z,18.47
2019-01-16T18:05:47.129Z,17.90
2019-01-16T18:08:35.371Z,17.93
2019-01-16T18:11:26.730Z,15.83
2019-01-16T18:14:09.702Z,16.87
2019-01-16T18:16:57.068Z,16.83
2019-01-16T18:19:54.231Z,20.80
2019-01-16T18:22:45.188Z,20.33
2019-01-16T18:25:28.667Z,19.30
2019-01-16T18:28:15.699Z,16.00
2019-01-16T18:31:02.474Z,14.80
2019-01-16T18:34:03.175Z,17.97
2019-01-16T18:37:02.748Z,18.27
2019-01-16T18:39:52.815Z,13.03
2019-01-16T18:42:40.112Z,15.37
2019-01-16T18:45:29.269Z,18.03
2019-01-16T18:48:19.149Z,17.77
2019-01-16T18:51:06.830Z,22.40
2019-01-16T18:54:00.876Z,19.93
2019-01-16T18:57:01.444Z,21.07
2019-01-16T19:00:04.790Z,28.47
2019-01-16T19:02:52.352Z,17.63
2019-01-16T19:05:39.779Z,19.73
2019-01-16T19:08:31.750Z,21.70
2019-01-16T19:11:17.824Z,16.13
2019-01-16T19:14:08.723Z,15.40
2019-01-16T19:16:57.345Z,11.27
2019-01-16T19:20:00.788Z,17.50
2019-01-16T19:22:46.904Z,13.93
2019-01-16T19:25:25.765Z,17.80
2019-01-16T19:28:12.898Z,13.10
2019-01-16T19:31:02.955Z,18.30
2019-01-16T19:33:47.163Z,16.90
2019-01-16T19:36:39.711Z,15.23
2019-01-16T19:39:37.446Z,16.87
2019-01-16T19:42:34.933Z,16.17
2019-01-16T19:45:24.407Z,14.30
2019-01-16T19:48:10.659Z,18.80
2019-01-16T19:51:01.912Z,10.10
2019-01-16T19:53:53.831Z,13.10
2019-01-16T19:57:00.824Z,13.47
2019-01-16T19:59:43.557Z,22.20
2019-01-16T20:02:30.346Z,15.27
2019-01-16T20:05:30.874Z,14.20
2019-01-16T20:08:13.339Z,15.67
2019-01-16T20:10:52.295Z,20.47
2019-01-16T20:13:39.144Z,17.03
2019-01-16T20:16:29.736Z,14.17
2019-01-16T20:19:15.598Z,13.70
2019-01-16T20:21:56.483Z,15.03
2019-01-16T20:24:43.225Z,16.43
2019-01-16T20:27:44.036Z,23.60
2019-01-16T20:30:45.239Z,15.20
2019-01-16T20:33:36.691Z,21.43
2019-01-16T20:36:15.330Z,15.67
2019-01-16T20:39:18.831Z,13.87
2019-01-16T20:42:12.725Z,11.43
2019-01-16T20:45:01.079Z,15.07
2019-01-16T20:48:04.879Z,12.77
2019-01-16T20:51:08.875Z,18.10
2019-01-16T20:54:06.428Z,14.17
2019-01-16T20:57:03.970Z,17.83
2019-01-16T20:59:53.154Z,15.37
2019-01-16T21:02:35.135Z,13.60
2019-01-16T21:05:19.586Z,14.13
2019-01-16T21:07:59.810Z,16.70
2019-01-16T21:10:42.486Z,13.60
2019-01-16T21:13:46.039Z,15.93
2019-01-16T21:16:32.840Z,14.60
2019-01-16T21:19:39.363Z,20.13
2019-01-16T21:22:17.922Z,14.80
2019-01-16T21:25:05.044Z,12.50
2019-01-16T21:27:52.525Z,15.83
2019-01-16T21:30:46.532Z,17.03
2019-01-16T21:33:33.703Z,13.87
2019-01-16T21:36:40.311Z,16.07
2019-01-16T21:39:31.158Z,15.93
2019-01-16T21:42:18.381Z,16.50
2019-01-16T21:45:06.626Z,16.47
2019-01-16T21:48:01.466Z,15.00
2019-01-16T21:50:58.762Z,23.00
2019-01-16T21:53:34.197Z,17.97
2019-01-16T21:56:21.460Z,19.47
2019-01-16T21:59:02.379Z,16.67
2019-01-16T22:01:49.545Z,16.17
2019-01-16T22:04:36.734Z,19.47
2019-01-16T22:07:28.736Z,20.57
2019-01-16T22:10:13.479Z,17.50
2019-01-16T22:12:52.164Z,15.80
2019-01-16T22:15:39.114Z,15.63
2019-01-16T22:18:28.560Z,16.07
2019-01-16T22:21:07.216Z,17.17
2019-01-16T22:24:01.751Z,18.43
2019-01-16T22:26:48.619Z,17.17
2019-01-16T22:29:36.854Z,20.50
2019-01-16T22:32:43.515Z,18.67
2019-01-16T22:35:44.293Z,22.93
2019-01-16T22:38:25.431Z,17.67
2019-01-16T22:41:17.014Z,15.60
2019-01-16T22:44:14.311Z,19.03
2019-01-16T22:47:02.903Z,15.23
2019-01-16T22:49:44.863Z,20.67
2019-01-16T22:52:36.073Z,22.17
2019-01-16T22:55:23.666Z,19.33
2019-01-16T22:58:11.677Z,21.90
2019-01-16T23:01:00.802Z,19.30
2019-01-16T23:03:49.002Z,22.80
2019-01-16T23:06:49.640Z,16.97
2019-01-16T23:09:43.692Z,18.57
2019-01-16T23:12:34.987Z,17.97
2019-01-16T23:15:14.390Z,16.33
2019-01-16T23:18:05.738Z,19.37
2019-01-16T23:20:52.845Z,19.57
2019-01-16T23:23:40.308Z,16.23
2019-01-16T23:26:27.299Z,17.60
2019-01-16T23:29:18.422Z,22.27
2019-01-16T23:32:18.071Z,17.03
2019-01-16T23:35:21.398Z,14.80
2019-01-16T23:38:08.655Z,16.53
2019-01-16T23:41:02.813Z,16.47
2019-01-16T23:43:53.988Z,16.53
2019-01-16T23:48:21.423Z,15.90
2019-01-16T23:51:21.844Z,14.70
2019-01-16T23:54:22.256Z,15.73
2019-01-16T23:57:09.075Z,16.33
